createdAt,value
2018-03-24T00:01:47.667Z,76.50
2018-03-24T00:04:14.325Z,76.60
2018-03-24T00:06:40.910Z,77.30
2018-03-24T00:09:07.087Z,77.30
2018-03-24T00:11:33.311Z,77.30
2018-03-24T00:13:59.568Z,77.30
2018-03-24T00:16:25.773Z,76.70
2018-03-24T00:18:52.005Z,76.30
2018-03-24T00:21:18.597Z,76.80
2018-03-24T00:23:44.794Z,76.80
2018-03-24T00:26:11.022Z,76.70
2018-03-24T00:28:37.279Z,76.60
2018-03-24T00:31:03.498Z,76.70
2018-03-24T00:33:29.723Z,77.00
2018-03-24T00:35:55.958Z,77.30
2018-03-24T00:38:22.159Z,77.30
2018-03-24T00:40:48.362Z,77.60
2018-03-24T00:43:14.948Z,77.80
2018-03-24T00:45:41.176Z,77.80
2018-03-24T00:48:07.423Z,77.90
2018-03-24T00:50:33.636Z,78.20
2018-03-24T00:52:59.876Z,78.30
2018-03-24T00:55:26.154Z,78.40
2018-03-24T00:57:52.371Z,78.30
2018-03-24T01:00:18.981Z,78.50
2018-03-24T01:02:45.236Z,78.50
2018-03-24T01:05:11.832Z,78.40
2018-03-24T01:07:39.032Z,78.50
2018-03-24T01:10:05.535Z,79.00
2018-03-24T01:12:31.744Z,78.90
2018-03-24T01:14:57.936Z,79.50
2018-03-24T01:17:24.168Z,79.40
2018-03-24T01:19:50.395Z,79.40
2018-03-24T01:22:16.590Z,79.40
2018-03-24T01:24:42.834Z,79.30
2018-03-24T01:27:09.067Z,79.50
2018-03-24T01:29:35.273Z,79.80
2018-03-24T01:32:01.878Z,80.60
2018-03-24T01:34:28.108Z,80.60
2018-03-24T01:36:54.340Z,80.80
2018-03-24T01:39:20.527Z,80.60
2018-03-24T01:41:46.751Z,81.20
2018-03-24T01:44:12.947Z,80.90
2018-03-24T01:46:39.511Z,80.90
2018-03-24T01:49:05.725Z,80.90
2018-03-24T01:51:31.973Z,81.00
2018-03-24T01:53:58.153Z,80.80
2018-03-24T01:56:24.368Z,80.60
2018-03-24T01:58:50.633Z,80.90
2018-03-24T02:01:16.867Z,81.30
2018-03-24T02:03:43.093Z,81.40
2018-03-24T02:06:09.320Z,81.00
2018-03-24T02:08:35.515Z,81.10
2018-03-24T02:11:02.685Z,81.10
2018-03-24T02:13:29.835Z,81.90
2018-03-24T02:15:56.090Z,81.50
2018-03-24T02:18:22.326Z,81.20
2018-03-24T02:20:48.587Z,81.30
2018-03-24T02:23:14.800Z,81.00
2018-03-24T02:25:41.100Z,80.70
2018-03-24T02:28:08.281Z,80.60
2018-03-24T02:30:34.522Z,80.30
2018-03-24T02:33:00.757Z,80.30
2018-03-24T02:35:26.959Z,80.30
2018-03-24T02:37:53.173Z,80.00
2018-03-24T02:40:19.429Z,80.00
2018-03-24T02:42:45.640Z,80.20
2018-03-24T02:45:11.905Z,80.00
2018-03-24T02:47:38.118Z,80.20
2018-03-24T02:50:04.358Z,80.20
2018-03-24T02:52:30.589Z,80.60
2018-03-24T02:54:56.811Z,80.40
2018-03-24T02:57:23.064Z,80.00
2018-03-24T02:59:50.626Z,80.00
2018-03-24T03:02:17.296Z,80.20
2018-03-24T03:04:43.503Z,80.20
2018-03-24T03:07:09.693Z,80.00
2018-03-24T03:09:35.929Z,80.30
2018-03-24T03:12:02.552Z,80.50
2018-03-24T03:14:28.751Z,80.50
2018-03-24T03:16:54.991Z,80.20
2018-03-24T03:19:21.233Z,80.00
2018-03-24T03:21:51.507Z,80.20
2018-03-24T03:24:17.731Z,80.20
2018-03-24T03:26:43.956Z,80.50
2018-03-24T03:29:10.171Z,80.10
2018-03-24T03:31:36.436Z,79.70
2018-03-24T03:34:02.726Z,79.40
2018-03-24T03:36:28.937Z,80.10
2018-03-24T03:38:55.171Z,80.10
2018-03-24T03:41:21.374Z,80.40
2018-03-24T03:43:47.588Z,80.70
2018-03-24T03:46:14.147Z,80.70
2018-03-24T03:48:40.365Z,80.70
2018-03-24T03:51:06.568Z,81.10
2018-03-24T03:53:32.804Z,80.90
2018-03-24T03:55:59.028Z,81.10
2018-03-24T03:58:25.236Z,81.00
2018-03-24T04:00:51.485Z,81.00
2018-03-24T04:03:17.718Z,80.30
2018-03-24T04:05:43.900Z,80.10
2018-03-24T04:08:10.115Z,80.30
2018-03-24T04:10:36.335Z,79.90
2018-03-24T04:13:02.562Z,79.70
2018-03-24T04:15:28.813Z,79.60
2018-03-24T04:17:55.009Z,79.40
2018-03-24T04:20:21.213Z,79.20
2018-03-24T04:22:47.441Z,79.30
2018-03-24T04:25:13.663Z,79.20
2018-03-24T04:27:39.857Z,79.30
2018-03-24T04:30:06.460Z,78.90
2018-03-24T04:32:32.730Z,78.90
2018-03-24T04:34:58.940Z,78.60
2018-03-24T04:37:25.901Z,78.70
2018-03-24T04:39:52.116Z,78.70
2018-03-24T04:42:18.707Z,79.30
2018-03-24T04:44:44.943Z,79.30
2018-03-24T04:47:11.163Z,79.70
2018-03-24T04:49:37.385Z,79.70
2018-03-24T04:52:03.980Z,79.10
2018-03-24T04:54:30.593Z,80.70
2018-03-24T04:56:56.806Z,80.70
2018-03-24T04:59:23.015Z,80.80
2018-03-24T05:01:49.233Z,80.40
2018-03-24T05:04:16.208Z,79.50
2018-03-24T05:06:42.451Z,80.20
2018-03-24T05:09:08.685Z,80.20
2018-03-24T05:11:34.941Z,79.90
2018-03-24T05:14:01.157Z,79.80
2018-03-24T05:16:27.740Z,79.30
2018-03-24T05:18:53.982Z,79.30
2018-03-24T05:21:20.261Z,79.20
2018-03-24T05:23:46.472Z,79.20
2018-03-24T05:26:12.738Z,79.40
2018-03-24T05:28:38.922Z,79.30
2018-03-24T05:31:05.130Z,79.20
2018-03-24T05:33:31.344Z,79.10
2018-03-24T05:35:57.534Z,78.90
2018-03-24T05:38:23.761Z,79.30
2018-03-24T05:40:49.990Z,79.20
2018-03-24T05:43:16.205Z,79.00
2018-03-24T05:45:42.459Z,79.00
2018-03-24T05:48:08.675Z,79.50
2018-03-24T05:50:34.901Z,79.20
2018-03-24T05:53:01.145Z,78.70
2018-03-24T05:55:27.355Z,78.60
2018-03-24T05:57:53.551Z,78.40
2018-03-24T06:00:20.193Z,79.40
2018-03-24T06:02:46.789Z,79.70
2018-03-24T06:05:13.000Z,79.70
2018-03-24T06:07:39.221Z,79.60
2018-03-24T06:10:05.434Z,78.90
2018-03-24T06:12:31.644Z,79.80
2018-03-24T06:14:57.909Z,79.70
2018-03-24T06:17:24.215Z,79.20
2018-03-24T06:19:50.438Z,79.20
2018-03-24T06:22:16.678Z,79.60
2018-03-24T06:24:42.907Z,79.60
2018-03-24T06:27:09.170Z,80.10
2018-03-24T06:29:35.382Z,80.10
2018-03-24T06:32:01.696Z,79.70
2018-03-24T06:34:28.012Z,79.60
2018-03-24T06:36:55.645Z,78.70
2018-03-24T06:39:21.945Z,78.70
2018-03-24T06:41:48.188Z,78.20
2018-03-24T06:44:14.456Z,77.80
2018-03-24T06:46:40.642Z,77.50
2018-03-24T06:49:06.854Z,77.10
2018-03-24T06:51:33.105Z,77.00
2018-03-24T06:53:59.304Z,76.80
2018-03-24T06:56:25.509Z,77.00
2018-03-24T06:58:51.764Z,77.10
2018-03-24T07:01:18.874Z,77.40
2018-03-24T07:03:45.079Z,77.00
2018-03-24T07:06:11.323Z,76.80
2018-03-24T07:08:37.529Z,76.60
2018-03-24T07:11:03.807Z,76.20
2018-03-24T07:13:30.021Z,76.60
2018-03-24T07:15:56.262Z,76.20
2018-03-24T07:18:22.480Z,75.70
2018-03-24T07:20:48.688Z,76.40
2018-03-24T07:23:15.538Z,76.40
2018-03-24T07:25:41.761Z,75.80
2018-03-24T07:28:07.987Z,75.30
2018-03-24T07:30:34.201Z,74.70
2018-03-24T07:33:00.477Z,74.60
2018-03-24T07:35:26.855Z,75.20
2018-03-24T07:37:53.072Z,75.40
2018-03-24T07:40:19.280Z,74.60
2018-03-24T07:42:45.505Z,74.40
2018-03-24T07:45:11.780Z,74.20
2018-03-24T07:47:38.083Z,74.00
2018-03-24T07:50:04.657Z,72.80
2018-03-24T07:52:30.924Z,72.20
2018-03-24T07:54:57.132Z,72.10
2018-03-24T07:57:23.359Z,72.10
2018-03-24T07:59:50.081Z,72.70
2018-03-24T08:02:16.655Z,72.40
2018-03-24T08:04:42.850Z,72.40
2018-03-24T08:07:09.090Z,71.20
2018-03-24T08:09:35.315Z,73.00
2018-03-24T08:12:01.547Z,72.80
2018-03-24T08:14:27.785Z,73.00
2018-03-24T08:16:54.053Z,73.40
2018-03-24T08:19:20.234Z,73.10
2018-03-24T08:21:47.514Z,73.60
2018-03-24T08:24:13.771Z,73.30
2018-03-24T08:26:39.995Z,73.60
2018-03-24T08:29:06.241Z,72.40
2018-03-24T08:31:32.862Z,73.20
2018-03-24T08:33:59.062Z,73.20
2018-03-24T08:36:25.741Z,72.30
2018-03-24T08:38:52.332Z,72.10
2018-03-24T08:41:18.595Z,72.10
2018-03-24T08:43:45.250Z,72.30
2018-03-24T08:46:11.874Z,72.50
2018-03-24T08:48:38.090Z,72.50
2018-03-24T08:51:04.366Z,72.90
2018-03-24T08:53:30.588Z,73.40
2018-03-24T08:55:56.790Z,72.80
2018-03-24T08:58:23.447Z,72.90
2018-03-24T09:00:50.008Z,71.80
2018-03-24T09:03:16.311Z,71.80
2018-03-24T09:05:42.905Z,71.70
2018-03-24T09:08:09.141Z,71.70
2018-03-24T09:10:35.376Z,71.60
2018-03-24T09:13:01.625Z,72.20
2018-03-24T09:15:28.217Z,69.40
2018-03-24T09:17:54.466Z,69.40
2018-03-24T09:20:20.716Z,69.40
2018-03-24T09:22:47.347Z,68.40
2018-03-24T09:25:13.951Z,68.30
2018-03-24T09:27:40.458Z,68.20
2018-03-24T09:30:06.653Z,67.10
2018-03-24T09:32:33.249Z,66.40
2018-03-24T09:34:59.591Z,66.40
2018-03-24T09:37:25.780Z,66.40
2018-03-24T09:39:51.964Z,64.00
2018-03-24T09:42:18.236Z,62.20
2018-03-24T09:44:44.496Z,61.70
2018-03-24T09:47:10.711Z,61.40
2018-03-24T09:49:37.303Z,58.30
2018-03-24T09:52:03.547Z,57.80
2018-03-24T09:54:29.806Z,53.60
2018-03-24T09:56:56.089Z,54.20
2018-03-24T09:59:22.354Z,51.20
2018-03-24T10:01:48.605Z,52.20
2018-03-24T10:04:14.854Z,50.50
2018-03-24T10:06:41.096Z,49.30
2018-03-24T10:09:07.722Z,48.20
2018-03-24T10:11:34.358Z,46.40
2018-03-24T10:14:00.975Z,45.20
2018-03-24T10:16:27.250Z,45.10
2018-03-24T10:18:53.513Z,43.80
2018-03-24T10:21:35.755Z,43.30
2018-03-24T10:24:07.003Z,43.30
2018-03-24T10:26:33.664Z,40.00
2018-03-24T10:28:59.913Z,40.00
2018-03-24T10:31:26.148Z,38.00
2018-03-24T10:33:58.354Z,36.30
2018-03-24T10:36:24.615Z,33.00
2018-03-24T10:38:50.837Z,30.00
2018-03-24T10:41:17.086Z,27.70
2018-03-24T10:43:43.348Z,24.70
2018-03-24T10:46:09.621Z,22.20
2018-03-24T10:48:36.241Z,20.50
2018-03-24T10:51:02.799Z,20.40
2018-03-24T10:53:29.052Z,19.10
2018-03-24T10:55:55.301Z,18.30
2018-03-24T10:58:21.588Z,17.30
2018-03-24T11:00:54.302Z,15.80
2018-03-24T11:03:20.520Z,15.80
2018-03-24T11:05:46.800Z,15.10
2018-03-24T11:08:13.060Z,14.30
2018-03-24T11:10:39.308Z,13.50
2018-03-24T11:13:05.586Z,13.90
2018-03-24T11:15:31.841Z,13.20
2018-03-24T11:17:58.078Z,13.30
2018-03-24T11:20:24.377Z,13.30
2018-03-24T11:22:57.581Z,12.50
2018-03-24T11:25:24.700Z,12.00
2018-03-24T11:27:50.973Z,12.10
2018-03-24T11:30:17.223Z,11.80
2018-03-24T11:32:43.477Z,12.30
2018-03-24T11:35:09.799Z,11.70
2018-03-24T11:37:36.024Z,11.30
2018-03-24T11:40:02.606Z,11.60
2018-03-24T11:42:28.910Z,11.70
2018-03-24T11:44:55.172Z,12.30
2018-03-24T11:47:21.376Z,12.30
2018-03-24T11:49:47.622Z,12.90
2018-03-24T11:52:13.852Z,12.80
2018-03-24T11:54:42.772Z,12.70
2018-03-24T11:57:09.047Z,12.70
2018-03-24T11:59:35.256Z,13.00
2018-03-24T12:02:01.510Z,11.90
2018-03-24T12:04:27.789Z,12.20
2018-03-24T12:06:54.022Z,11.70
2018-03-24T12:09:21.677Z,11.60
2018-03-24T12:11:47.915Z,11.90
2018-03-24T12:14:15.166Z,11.80
2018-03-24T12:16:41.441Z,11.90
2018-03-24T12:19:07.766Z,11.70
2018-03-24T12:21:34.083Z,12.30
2018-03-24T12:24:00.324Z,12.70
2018-03-24T12:26:26.599Z,12.00
2018-03-24T12:28:52.840Z,11.70
2018-03-24T12:31:19.112Z,12.50
2018-03-24T12:33:46.522Z,12.70
2018-03-24T12:36:12.770Z,12.70
2018-03-24T12:38:39.909Z,13.10
2018-03-24T12:41:06.501Z,13.00
2018-03-24T12:43:32.746Z,12.90
2018-03-24T12:45:58.995Z,13.50
2018-03-24T12:48:25.241Z,14.40
2018-03-24T12:50:51.505Z,14.50
2018-03-24T12:53:18.188Z,16.20
2018-03-24T12:55:44.479Z,16.20
2018-03-24T12:58:11.170Z,17.80
2018-03-24T13:00:37.448Z,17.80
2018-03-24T13:03:03.690Z,18.50
2018-03-24T13:05:30.892Z,19.20
2018-03-24T13:07:57.936Z,19.90
2018-03-24T13:10:24.196Z,20.30
2018-03-24T13:12:50.456Z,21.80
2018-03-24T13:15:16.734Z,21.90
2018-03-24T13:17:43.021Z,22.90
2018-03-24T13:20:09.620Z,22.90
2018-03-24T13:22:36.216Z,24.80
2018-03-24T13:25:02.494Z,24.80
2018-03-24T13:27:28.769Z,24.60
2018-03-24T13:29:54.983Z,25.80
2018-03-24T13:32:21.203Z,25.40
2018-03-24T13:34:47.477Z,26.00
2018-03-24T13:37:13.733Z,24.30
2018-03-24T13:39:40.061Z,25.90
2018-03-24T13:42:06.686Z,26.50
2018-03-24T13:44:32.970Z,26.50
2018-03-24T13:46:59.266Z,26.70
2018-03-24T13:49:25.487Z,27.30
2018-03-24T13:51:51.793Z,27.40
2018-03-24T13:54:18.061Z,26.60
2018-03-24T13:56:44.385Z,27.10
2018-03-24T13:59:10.645Z,27.50
2018-03-24T14:01:36.897Z,27.30
2018-03-24T14:04:03.183Z,27.20
2018-03-24T14:06:29.415Z,27.80
2018-03-24T14:08:55.995Z,28.20
2018-03-24T14:11:22.220Z,28.00
2018-03-24T14:13:48.502Z,27.40
2018-03-24T14:16:14.787Z,27.50
2018-03-24T14:18:41.023Z,27.80
2018-03-24T14:21:07.271Z,28.50
2018-03-24T14:23:33.891Z,29.20
2018-03-24T14:26:00.195Z,29.20
2018-03-24T14:28:26.451Z,29.00
2018-03-24T14:30:52.720Z,29.80
2018-03-24T14:33:18.950Z,29.20
2018-03-24T14:35:45.206Z,29.00
2018-03-24T14:38:11.855Z,29.20
2018-03-24T14:40:38.126Z,29.40
2018-03-24T14:43:04.382Z,29.50
2018-03-24T14:45:30.680Z,28.80
2018-03-24T14:47:56.905Z,29.10
2018-03-24T14:50:23.169Z,29.90
2018-03-24T14:52:49.535Z,29.50
2018-03-24T14:55:15.732Z,29.60
2018-03-24T14:57:42.023Z,28.80
2018-03-24T15:00:08.714Z,28.40
2018-03-24T15:02:34.936Z,28.40
2018-03-24T15:05:01.207Z,28.30
2018-03-24T15:07:27.865Z,29.20
2018-03-24T15:09:54.096Z,29.20
2018-03-24T15:12:20.446Z,29.30
2018-03-24T15:14:46.640Z,29.20
2018-03-24T15:17:12.905Z,30.00
2018-03-24T15:19:39.134Z,29.50
2018-03-24T15:22:05.826Z,29.80
2018-03-24T15:24:32.051Z,29.70
2018-03-24T15:26:58.675Z,28.60
2018-03-24T15:42:47.985Z,30.30
2018-03-24T15:45:14.279Z,30.30
2018-03-24T15:47:40.593Z,30.60
2018-03-24T15:50:06.880Z,31.00
2018-03-24T15:52:33.154Z,31.10
2018-03-24T15:54:59.421Z,31.10
2018-03-24T15:57:25.983Z,31.20
2018-03-24T15:59:52.287Z,31.90
2018-03-24T16:02:18.534Z,32.70
2018-03-24T16:04:44.832Z,32.80
2018-03-24T16:07:11.117Z,33.50
2018-03-24T16:09:37.390Z,33.80
2018-03-24T16:12:03.746Z,34.10
2018-03-24T16:14:30.015Z,35.60
2018-03-24T16:16:56.301Z,34.80
2018-03-24T16:19:22.614Z,35.70
2018-03-24T16:21:49.008Z,34.70
2018-03-24T16:24:15.363Z,35.20
2018-03-24T16:26:41.681Z,35.80
2018-03-24T16:29:08.360Z,36.60
2018-03-24T16:31:34.665Z,36.60
2018-03-24T16:34:01.026Z,36.80
2018-03-24T16:36:27.331Z,37.50
2018-03-24T16:38:53.587Z,37.80
2018-03-24T16:41:19.942Z,37.30
2018-03-24T16:43:46.608Z,38.90
2018-03-24T16:46:13.244Z,39.20
2018-03-24T16:48:39.538Z,39.20
2018-03-24T16:51:05.804Z,39.30
2018-03-24T16:53:32.462Z,42.30
2018-03-24T16:55:58.997Z,42.30
2018-03-24T16:58:25.287Z,43.40
2018-03-24T17:00:51.513Z,44.20
2018-03-24T17:03:17.796Z,44.40
2018-03-24T17:05:44.011Z,44.40
2018-03-24T17:08:11.464Z,44.30
2018-03-24T17:10:38.596Z,45.60
2018-03-24T17:13:04.877Z,45.60
2018-03-24T17:15:31.130Z,45.80
2018-03-24T17:17:57.438Z,45.70
2018-03-24T17:20:23.687Z,46.50
2018-03-24T17:22:49.996Z,47.30
2018-03-24T17:25:16.570Z,47.80
2018-03-24T17:27:42.819Z,47.90
2018-03-24T17:30:11.068Z,48.70
2018-03-24T17:32:37.323Z,48.70
2018-03-24T17:35:03.940Z,48.60
2018-03-24T17:37:30.237Z,48.60
2018-03-24T17:39:56.511Z,49.20
2018-03-24T17:42:22.796Z,48.90
2018-03-24T17:44:49.048Z,49.80
2018-03-24T17:47:15.369Z,50.90
2018-03-24T17:49:41.638Z,51.00
2018-03-24T17:52:07.867Z,50.40
2018-03-24T17:54:34.526Z,51.60
2018-03-24T17:57:00.813Z,51.60
2018-03-24T17:59:27.098Z,52.50
2018-03-24T18:01:53.384Z,52.00
2018-03-24T18:04:19.658Z,52.50
2018-03-24T18:06:45.899Z,52.70
2018-03-24T18:09:12.192Z,52.90
2018-03-24T18:11:38.442Z,53.30
2018-03-24T18:14:04.711Z,53.80
2018-03-24T18:16:30.978Z,53.90
2018-03-24T18:18:57.239Z,54.20
2018-03-24T18:21:23.523Z,54.60
2018-03-24T18:23:50.223Z,55.30
2018-03-24T18:26:16.543Z,55.30
2018-03-24T18:28:42.832Z,55.70
2018-03-24T18:31:09.167Z,55.90
2018-03-24T18:33:35.447Z,56.40
2018-03-24T18:36:01.758Z,56.80
2018-03-24T18:38:28.322Z,57.20
2018-03-24T18:40:54.544Z,57.30
2018-03-24T18:43:20.816Z,57.60
2018-03-24T18:45:47.049Z,58.20
2018-03-24T18:48:13.358Z,58.50
2018-03-24T18:50:39.990Z,59.00
2018-03-24T18:53:06.238Z,59.00
2018-03-24T18:55:32.506Z,59.20
2018-03-24T18:57:58.853Z,59.20
2018-03-24T19:00:26.208Z,59.50
2018-03-24T19:02:52.471Z,59.50
2018-03-24T19:05:19.082Z,60.10
2018-03-24T19:07:45.348Z,60.10
2018-03-24T19:10:11.654Z,61.00
2018-03-24T19:12:37.943Z,60.90
2018-03-24T19:15:04.222Z,61.00
2018-03-24T19:17:30.836Z,61.50
2018-03-24T19:19:57.152Z,61.50
2018-03-24T19:22:23.372Z,61.90
2018-03-24T19:24:49.657Z,62.50
2018-03-24T19:27:15.891Z,62.40
2018-03-24T19:29:42.164Z,62.60
2018-03-24T19:32:08.438Z,62.80
2018-03-24T19:34:35.076Z,63.70
2018-03-24T19:37:01.776Z,64.40
2018-03-24T19:39:28.040Z,64.40
2018-03-24T19:41:54.270Z,64.10
2018-03-24T19:44:21.223Z,64.50
2018-03-24T19:46:47.477Z,64.50
2018-03-24T19:49:13.733Z,64.50
2018-03-24T19:51:40.015Z,64.60
2018-03-24T19:54:06.306Z,64.70
2018-03-24T19:56:32.592Z,65.10
2018-03-24T19:59:00.764Z,65.40
2018-03-24T20:01:27.082Z,65.70
2018-03-24T20:03:53.329Z,66.00
2018-03-24T20:06:20.557Z,66.20
2018-03-24T20:08:46.863Z,66.60
2018-03-24T20:11:13.127Z,66.60
2018-03-24T20:13:39.663Z,66.50
2018-03-24T20:16:05.889Z,66.70
2018-03-24T20:18:32.160Z,66.90
2018-03-24T20:20:58.443Z,67.20
2018-03-24T20:23:24.677Z,67.50
2018-03-24T20:25:50.957Z,67.10
2018-03-24T20:28:17.272Z,67.30
2018-03-24T20:30:43.541Z,67.40
2018-03-24T20:33:09.776Z,67.50
2018-03-24T20:35:37.746Z,67.30
2018-03-24T20:38:03.975Z,67.50
2018-03-24T20:40:30.236Z,67.90
2018-03-24T20:42:56.524Z,67.70
2018-03-24T20:45:22.764Z,67.70
2018-03-24T20:47:49.060Z,67.80
2018-03-24T20:50:15.717Z,68.30
2018-03-24T20:52:42.000Z,68.40
2018-03-24T20:55:08.337Z,68.20
2018-03-24T20:57:34.605Z,68.60
2018-03-24T21:00:01.272Z,69.00
2018-03-24T21:02:27.625Z,69.00
2018-03-24T21:04:53.916Z,69.20
2018-03-24T21:07:20.211Z,69.60
2018-03-24T21:09:46.494Z,69.60
2018-03-24T21:12:12.815Z,69.40
2018-03-24T21:14:39.123Z,69.70
2018-03-24T21:17:05.366Z,69.50
2018-03-24T21:19:31.634Z,69.40
2018-03-24T21:21:57.898Z,69.10
2018-03-24T21:24:24.591Z,69.50
2018-03-24T21:26:50.845Z,69.50
2018-03-24T21:29:17.171Z,70.10
2018-03-24T21:31:43.441Z,70.20
2018-03-24T21:34:09.713Z,70.00
2018-03-24T21:36:35.980Z,69.90
2018-03-24T21:39:02.313Z,70.20
2018-03-24T21:41:28.963Z,70.20
2018-03-24T21:43:55.234Z,70.20
2018-03-24T21:46:21.464Z,70.30
2018-03-24T21:48:47.765Z,69.90
2018-03-24T21:51:14.013Z,70.20
2018-03-24T21:53:40.323Z,70.00
2018-03-24T21:56:06.614Z,70.00
2018-03-24T21:58:33.132Z,70.40
2018-03-24T22:01:01.167Z,70.30
2018-03-24T22:03:27.466Z,70.30
2018-03-24T22:05:54.136Z,70.60
2018-03-24T22:08:20.369Z,70.50
2018-03-24T22:10:46.586Z,70.50
2018-03-24T22:13:12.858Z,70.30
2018-03-24T22:15:40.093Z,70.50
2018-03-24T22:18:06.369Z,70.40
2018-03-24T22:20:32.643Z,70.50
2018-03-24T22:22:58.888Z,70.50
2018-03-24T22:25:26.152Z,69.90
2018-03-24T22:27:52.467Z,70.10
2018-03-24T22:30:18.767Z,70.20
2018-03-24T22:32:45.070Z,69.90
2018-03-24T22:35:11.723Z,70.60
2018-03-24T22:37:37.994Z,70.60
2018-03-24T22:40:04.268Z,70.70
2018-03-24T22:42:30.806Z,70.50
2018-03-24T22:44:57.829Z,70.80
2018-03-24T22:47:24.476Z,71.90
2018-03-24T22:49:51.120Z,71.60
2018-03-24T22:52:17.386Z,71.60
2018-03-24T22:54:43.689Z,71.30
2018-03-24T22:57:11.343Z,72.20
2018-03-24T22:59:37.954Z,72.00
2018-03-24T23:02:04.926Z,72.00
2018-03-24T23:04:31.606Z,72.50
2018-03-24T23:06:57.847Z,72.50
2018-03-24T23:09:24.092Z,72.80
2018-03-24T23:11:50.384Z,72.80
2018-03-24T23:14:17.541Z,72.60
2018-03-24T23:16:43.792Z,73.30
2018-03-24T23:19:11.092Z,73.50
2018-03-24T23:21:37.342Z,73.40
2018-03-24T23:24:03.621Z,72.70
2018-03-24T23:26:29.857Z,72.80
2018-03-24T23:28:56.508Z,73.10
2018-03-24T23:31:23.122Z,73.60
2018-03-24T23:33:49.320Z,73.60
2018-03-24T23:36:15.584Z,73.20
2018-03-24T23:38:42.165Z,73.40
2018-03-24T23:41:08.449Z,73.40
2018-03-24T23:43:35.041Z,73.00
2018-03-24T23:46:01.282Z,73.00
2018-03-24T23:48:27.543Z,73.20
2018-03-24T23:50:54.147Z,73.70
2018-03-24T23:53:20.403Z,73.70
2018-03-24T23:55:46.985Z,73.60
2018-03-24T23:58:13.245Z,73.60
